sensor_id;sensor_type;location;lat;lon;timestamp;temperature;humidity
49222;DHT22;35047;37.588;-122.048;2023-02-28T00:01:29;13.60;82.20
49222;DHT22;35047;37.588;-122.048;2023-02-28T00:03:57;13.80;80.20
49222;DHT22;35047;37.588;-122.048;2023-02-28T00:06:23;13.40;79.80
49222;DHT22;35047;37.588;-122.048;2023-02-28T00:08:50;13.20;79.90
49222;DHT22;35047;37.588;-122.048;2023-02-28T00:11:17;13.10;81.40
49222;DHT22;35047;37.588;-122.048;2023-02-28T00:13:45;13.10;81.60
49222;DHT22;35047;37.588;-122.048;2023-02-28T00:16:20;13.10;83.90
49222;DHT22;35047;37.588;-122.048;2023-02-28T00:18:47;13.10;81.70
49222;DHT22;35047;37.588;-122.048;2023-02-28T00:21:15;13.50;86.90
49222;DHT22;35047;37.588;-122.048;2023-02-28T00:23:41;13.90;86.40
49222;DHT22;35047;37.588;-122.048;2023-02-28T00:26:08;13.90;81.50
49222;DHT22;35047;37.588;-122.048;2023-02-28T00:28:35;14.00;84.40
49222;DHT22;35047;37.588;-122.048;2023-02-28T00:31:01;14.30;84.50
49222;DHT22;35047;37.588;-122.048;2023-02-28T00:33:28;14.40;83.90
49222;DHT22;35047;37.588;-122.048;2023-02-28T00:36:06;14.30;78.60
49222;DHT22;35047;37.588;-122.048;2023-02-28T00:38:33;14.20;80.60
49222;DHT22;35047;37.588;-122.048;2023-02-28T00:41:00;14.60;84.60
49222;DHT22;35047;37.588;-122.048;2023-02-28T00:43:31;14.70;83.00
49222;DHT22;35047;37.588;-122.048;2023-02-28T00:45:58;14.90;80.40
49222;DHT22;35047;37.588;-122.048;2023-02-28T00:48:25;14.70;80.50
49222;DHT22;35047;37.588;-122.048;2023-02-28T00:50:53;14.90;82.60
49222;DHT22;35047;37.588;-122.048;2023-02-28T00:53:20;14.90;77.70
49222;DHT22;35047;37.588;-122.048;2023-02-28T00:55:48;14.80;78.70
49222;DHT22;35047;37.588;-122.048;2023-02-28T00:58:14;15.10;79.50
49222;DHT22;35047;37.588;-122.048;2023-02-28T01:00:41;15.10;79.40
49222;DHT22;35047;37.588;-122.048;2023-02-28T01:03:07;15.30;80.60
49222;DHT22;35047;37.588;-122.048;2023-02-28T01:05:34;15.20;79.40
49222;DHT22;35047;37.588;-122.048;2023-02-28T01:08:00;15.30;78.60
49222;DHT22;35047;37.588;-122.048;2023-02-28T01:10:28;15.20;78.90
49222;DHT22;35047;37.588;-122.048;2023-02-28T01:12:57;15.20;78.00
49222;DHT22;35047;37.588;-122.048;2023-02-28T01:15:23;15.10;77.90
49222;DHT22;35047;37.588;-122.048;2023-02-28T01:17:50;15.10;78.40
49222;DHT22;35047;37.588;-122.048;2023-02-28T01:20:17;15.00;78.10
49222;DHT22;35047;37.588;-122.048;2023-02-28T01:22:44;15.00;76.60
49222;DHT22;35047;37.588;-122.048;2023-02-28T01:25:10;15.00;78.00
49222;DHT22;35047;37.588;-122.048;2023-02-28T01:27:37;14.90;78.40
49222;DHT22;35047;37.588;-122.048;2023-02-28T01:30:09;14.90;76.30
49222;DHT22;35047;37.588;-122.048;2023-02-28T01:32:36;14.80;77.70
49222;DHT22;35047;37.588;-122.048;2023-02-28T01:35:02;14.80;77.60
49222;DHT22;35047;37.588;-122.048;2023-02-28T01:37:29;14.80;78.30
49222;DHT22;35047;37.588;-122.048;2023-02-28T01:39:55;14.90;77.40
49222;DHT22;35047;37.588;-122.048;2023-02-28T01:42:22;14.80;77.40
49222;DHT22;35047;37.588;-122.048;2023-02-28T01:47:31;14.70;74.80
49222;DHT22;35047;37.588;-122.048;2023-02-28T01:49:59;14.80;78.30
49222;DHT22;35047;37.588;-122.048;2023-02-28T01:52:28;14.70;76.50
49222;DHT22;35047;37.588;-122.048;2023-02-28T01:54:56;14.90;77.50
49222;DHT22;35047;37.588;-122.048;2023-02-28T01:57:29;14.70;74.70
49222;DHT22;35047;37.588;-122.048;2023-02-28T02:00:09;14.60;73.20
49222;DHT22;35047;37.588;-122.048;2023-02-28T02:02:36;14.60;78.20
49222;DHT22;35047;37.588;-122.048;2023-02-28T02:05:07;14.70;77.60
49222;DHT22;35047;37.588;-122.048;2023-02-28T02:07:40;14.80;78.20
49222;DHT22;35047;37.588;-122.048;2023-02-28T02:10:12;14.70;74.90
49222;DHT22;35047;37.588;-122.048;2023-02-28T02:15:53;14.70;78.90
49222;DHT22;35047;37.588;-122.048;2023-02-28T02:18:53;14.80;78.30
49222;DHT22;35047;37.588;-122.048;2023-02-28T02:29:47;15.00;78.80
49222;DHT22;35047;37.588;-122.048;2023-02-28T02:35:23;15.00;78.70
49222;DHT22;35047;37.588;-122.048;2023-02-28T02:39:02;15.00;78.90
49222;DHT22;35047;37.588;-122.048;2023-02-28T02:43:53;14.90;79.40
49222;DHT22;35047;37.588;-122.048;2023-02-28T02:46:35;15.00;79.50
49222;DHT22;35047;37.588;-122.048;2023-02-28T02:49:08;15.00;79.20
49222;DHT22;35047;37.588;-122.048;2023-02-28T02:51:38;15.00;79.30
49222;DHT22;35047;37.588;-122.048;2023-02-28T02:56:44;14.90;78.90
49222;DHT22;35047;37.588;-122.048;2023-02-28T02:59:13;14.90;78.70
49222;DHT22;35047;37.588;-122.048;2023-02-28T03:01:55;14.80;78.50
49222;DHT22;35047;37.588;-122.048;2023-02-28T03:04:26;14.80;78.60
49222;DHT22;35047;37.588;-122.048;2023-02-28T03:06:54;14.70;78.40
49222;DHT22;35047;37.588;-122.048;2023-02-28T03:09:22;14.70;78.50
49222;DHT22;35047;37.588;-122.048;2023-02-28T03:11:49;14.60;78.50
49222;DHT22;35047;37.588;-122.048;2023-02-28T03:14:32;14.60;78.50
49222;DHT22;35047;37.588;-122.048;2023-02-28T03:22:24;13.80;77.70
49222;DHT22;35047;37.588;-122.048;2023-02-28T03:30:24;13.70;77.70
49222;DHT22;35047;37.588;-122.048;2023-02-28T03:33:03;13.80;78.50
49222;DHT22;35047;37.588;-122.048;2023-02-28T03:35:34;13.60;74.10
49222;DHT22;35047;37.588;-122.048;2023-02-28T03:38:16;13.70;79.80
49222;DHT22;35047;37.588;-122.048;2023-02-28T03:40:55;13.70;79.00
49222;DHT22;35047;37.588;-122.048;2023-02-28T03:43:24;13.90;80.00
49222;DHT22;35047;37.588;-122.048;2023-02-28T03:45:54;13.90;79.90
49222;DHT22;35047;37.588;-122.048;2023-02-28T03:48:23;14.00;79.80
49222;DHT22;35047;37.588;-122.048;2023-02-28T03:50:55;14.00;79.70
49222;DHT22;35047;37.588;-122.048;2023-02-28T03:53:39;14.00;79.50
49222;DHT22;35047;37.588;-122.048;2023-02-28T03:59:13;14.10;78.70
49222;DHT22;35047;37.588;-122.048;2023-02-28T04:01:47;14.10;78.70
49222;DHT22;35047;37.588;-122.048;2023-02-28T04:04:14;14.10;78.90
49222;DHT22;35047;37.588;-122.048;2023-02-28T04:06:41;14.10;78.80
49222;DHT22;35047;37.588;-122.048;2023-02-28T04:09:11;14.10;78.50
49222;DHT22;35047;37.588;-122.048;2023-02-28T04:11:40;14.10;78.50
49222;DHT22;35047;37.588;-122.048;2023-02-28T04:14:09;14.10;78.40
49222;DHT22;35047;37.588;-122.048;2023-02-28T04:16:39;14.00;78.40
49222;DHT22;35047;37.588;-122.048;2023-02-28T04:19:07;14.00;78.50
49222;DHT22;35047;37.588;-122.048;2023-02-28T04:21:37;13.90;78.50
49222;DHT22;35047;37.588;-122.048;2023-02-28T04:24:11;13.90;78.60
49222;DHT22;35047;37.588;-122.048;2023-02-28T04:26:44;13.90;78.50
49222;DHT22;35047;37.588;-122.048;2023-02-28T04:29:13;13.80;78.60
49222;DHT22;35047;37.588;-122.048;2023-02-28T04:31:40;13.80;79.40
49222;DHT22;35047;37.588;-122.048;2023-02-28T04:34:07;13.70;79.60
49222;DHT22;35047;37.588;-122.048;2023-02-28T04:36:33;13.70;80.10
49222;DHT22;35047;37.588;-122.048;2023-02-28T04:39:00;13.60;79.60
49222;DHT22;35047;37.588;-122.048;2023-02-28T04:41:27;13.30;76.60
49222;DHT22;35047;37.588;-122.048;2023-02-28T04:43:53;13.30;77.90
49222;DHT22;35047;37.588;-122.048;2023-02-28T04:46:20;13.40;81.60
49222;DHT22;35047;37.588;-122.048;2023-02-28T04:48:47;13.40;80.10
49222;DHT22;35047;37.588;-122.048;2023-02-28T04:51:15;13.30;77.00
49222;DHT22;35047;37.588;-122.048;2023-02-28T04:53:43;13.30;80.50
49222;DHT22;35047;37.588;-122.048;2023-02-28T04:56:13;13.10;78.40
49222;DHT22;35047;37.588;-122.048;2023-02-28T04:58:39;13.30;82.10
49222;DHT22;35047;37.588;-122.048;2023-02-28T05:01:30;13.30;81.40
49222;DHT22;35047;37.588;-122.048;2023-02-28T05:04:00;13.40;82.20
49222;DHT22;35047;37.588;-122.048;2023-02-28T05:06:28;13.50;82.00
49222;DHT22;35047;37.588;-122.048;2023-02-28T05:08:55;13.50;81.80
49222;DHT22;35047;37.588;-122.048;2023-02-28T05:11:28;13.60;81.70
49222;DHT22;35047;37.588;-122.048;2023-02-28T05:13:59;13.60;82.50
49222;DHT22;35047;37.588;-122.048;2023-02-28T05:16:26;13.60;82.20
49222;DHT22;35047;37.588;-122.048;2023-02-28T05:18:52;13.50;82.80
49222;DHT22;35047;37.588;-122.048;2023-02-28T05:23:54;13.50;82.40
49222;DHT22;35047;37.588;-122.048;2023-02-28T05:26:21;13.60;82.40
49222;DHT22;35047;37.588;-122.048;2023-02-28T05:28:48;13.70;82.80
49222;DHT22;35047;37.588;-122.048;2023-02-28T05:31:14;13.60;82.30
49222;DHT22;35047;37.588;-122.048;2023-02-28T05:33:41;13.60;82.60
49222;DHT22;35047;37.588;-122.048;2023-02-28T05:36:08;13.50;82.90
49222;DHT22;35047;37.588;-122.048;2023-02-28T05:38:35;13.70;82.90
49222;DHT22;35047;37.588;-122.048;2023-02-28T05:41:06;13.80;82.50
49222;DHT22;35047;37.588;-122.048;2023-02-28T05:43:33;13.90;82.10
49222;DHT22;35047;37.588;-122.048;2023-02-28T05:46:01;13.90;81.70
49222;DHT22;35047;37.588;-122.048;2023-02-28T05:48:28;13.90;80.80
49222;DHT22;35047;37.588;-122.048;2023-02-28T05:50:54;13.90;81.10
49222;DHT22;35047;37.588;-122.048;2023-02-28T05:53:21;13.80;81.30
49222;DHT22;35047;37.588;-122.048;2023-02-28T05:55:48;13.80;81.90
49222;DHT22;35047;37.588;-122.048;2023-02-28T05:58:14;13.80;82.60
49222;DHT22;35047;37.588;-122.048;2023-02-28T06:00:41;13.70;82.40
49222;DHT22;35047;37.588;-122.048;2023-02-28T06:03:07;13.70;82.40
49222;DHT22;35047;37.588;-122.048;2023-02-28T06:05:33;13.70;82.70
49222;DHT22;35047;37.588;-122.048;2023-02-28T06:08:00;13.70;83.30
49222;DHT22;35047;37.588;-122.048;2023-02-28T06:10:26;13.70;83.30
49222;DHT22;35047;37.588;-122.048;2023-02-28T06:12:53;13.70;83.60
49222;DHT22;35047;37.588;-122.048;2023-02-28T06:15:20;13.70;82.80
49222;DHT22;35047;37.588;-122.048;2023-02-28T06:17:46;13.60;81.50
49222;DHT22;35047;37.588;-122.048;2023-02-28T06:20:13;13.60;82.60
49222;DHT22;35047;37.588;-122.048;2023-02-28T06:22:40;13.50;82.00
49222;DHT22;35047;37.588;-122.048;2023-02-28T06:25:07;13.60;84.20
49222;DHT22;35047;37.588;-122.048;2023-02-28T06:27:34;13.50;83.60
49222;DHT22;35047;37.588;-122.048;2023-02-28T06:30:00;13.40;81.50
49222;DHT22;35047;37.588;-122.048;2023-02-28T06:32:27;13.40;82.30
49222;DHT22;35047;37.588;-122.048;2023-02-28T06:34:55;13.10;80.30
49222;DHT22;35047;37.588;-122.048;2023-02-28T06:37:23;12.90;81.90
49222;DHT22;35047;37.588;-122.048;2023-02-28T06:39:52;13.00;85.40
49222;DHT22;35047;37.588;-122.048;2023-02-28T06:42:22;13.00;84.10
49222;DHT22;35047;37.588;-122.048;2023-02-28T06:44:55;13.00;84.90
49222;DHT22;35047;37.588;-122.048;2023-02-28T06:47:22;12.80;81.00
49222;DHT22;35047;37.588;-122.048;2023-02-28T06:49:49;12.80;81.70
49222;DHT22;35047;37.588;-122.048;2023-02-28T06:52:16;12.80;82.40
49222;DHT22;35047;37.588;-122.048;2023-02-28T06:54:43;12.90;85.40
49222;DHT22;35047;37.588;-122.048;2023-02-28T06:57:09;13.00;84.90
49222;DHT22;35047;37.588;-122.048;2023-02-28T06:59:36;13.00;84.30
49222;DHT22;35047;37.588;-122.048;2023-02-28T07:02:02;13.10;84.00
49222;DHT22;35047;37.588;-122.048;2023-02-28T07:04:29;13.10;83.70
49222;DHT22;35047;37.588;-122.048;2023-02-28T07:06:55;13.10;83.70
49222;DHT22;35047;37.588;-122.048;2023-02-28T07:09:23;13.10;84.10
49222;DHT22;35047;37.588;-122.048;2023-02-28T07:11:49;13.10;84.10
49222;DHT22;35047;37.588;-122.048;2023-02-28T07:14:16;13.10;84.20
49222;DHT22;35047;37.588;-122.048;2023-02-28T07:16:43;13.10;84.00
49222;DHT22;35047;37.588;-122.048;2023-02-28T07:19:11;13.00;83.90
49222;DHT22;35047;37.588;-122.048;2023-02-28T07:21:37;13.00;84.10
49222;DHT22;35047;37.588;-122.048;2023-02-28T07:24:05;13.00;84.10
49222;DHT22;35047;37.588;-122.048;2023-02-28T07:26:32;13.00;84.20
49222;DHT22;35047;37.588;-122.048;2023-02-28T07:28:59;13.00;84.30
49222;DHT22;35047;37.588;-122.048;2023-02-28T07:31:26;13.00;84.30
49222;DHT22;35047;37.588;-122.048;2023-02-28T07:33:52;13.00;84.50
49222;DHT22;35047;37.588;-122.048;2023-02-28T07:36:20;13.00;84.60
49222;DHT22;35047;37.588;-122.048;2023-02-28T07:38:47;13.00;84.70
49222;DHT22;35047;37.588;-122.048;2023-02-28T07:41:20;13.00;84.90
49222;DHT22;35047;37.588;-122.048;2023-02-28T07:43:47;13.00;85.00
49222;DHT22;35047;37.588;-122.048;2023-02-28T07:46:15;13.00;85.10
49222;DHT22;35047;37.588;-122.048;2023-02-28T07:48:42;13.00;85.10
49222;DHT22;35047;37.588;-122.048;2023-02-28T07:51:09;13.00;85.20
49222;DHT22;35047;37.588;-122.048;2023-02-28T07:53:36;13.00;85.10
49222;DHT22;35047;37.588;-122.048;2023-02-28T07:56:03;13.00;85.10
49222;DHT22;35047;37.588;-122.048;2023-02-28T07:58:30;12.90;84.90
49222;DHT22;35047;37.588;-122.048;2023-02-28T08:00:56;12.80;85.40
49222;DHT22;35047;37.588;-122.048;2023-02-28T08:03:24;12.80;85.00
49222;DHT22;35047;37.588;-122.048;2023-02-28T08:05:51;12.80;85.20
49222;DHT22;35047;37.588;-122.048;2023-02-28T08:08:18;12.80;84.60
49222;DHT22;35047;37.588;-122.048;2023-02-28T08:10:44;12.80;84.10
49222;DHT22;35047;37.588;-122.048;2023-02-28T08:13:11;12.80;84.00
49222;DHT22;35047;37.588;-122.048;2023-02-28T08:15:37;12.80;84.20
49222;DHT22;35047;37.588;-122.048;2023-02-28T08:18:04;12.80;83.90
49222;DHT22;35047;37.588;-122.048;2023-02-28T08:20:30;12.80;83.50
49222;DHT22;35047;37.588;-122.048;2023-02-28T08:22:58;12.80;83.50
49222;DHT22;35047;37.588;-122.048;2023-02-28T08:25:24;12.80;83.40
49222;DHT22;35047;37.588;-122.048;2023-02-28T08:27:52;12.70;83.20
49222;DHT22;35047;37.588;-122.048;2023-02-28T08:30:18;12.70;83.40
49222;DHT22;35047;37.588;-122.048;2023-02-28T08:32:45;12.70;83.30
49222;DHT22;35047;37.588;-122.048;2023-02-28T08:35:11;12.60;83.20
49222;DHT22;35047;37.588;-122.048;2023-02-28T08:37:38;12.60;83.20
49222;DHT22;35047;37.588;-122.048;2023-02-28T08:40:05;12.60;83.30
49222;DHT22;35047;37.588;-122.048;2023-02-28T08:42:32;12.50;83.30
49222;DHT22;35047;37.588;-122.048;2023-02-28T08:44:59;12.50;83.30
49222;DHT22;35047;37.588;-122.048;2023-02-28T08:47:25;12.50;83.30
49222;DHT22;35047;37.588;-122.048;2023-02-28T08:49:52;12.50;84.20
49222;DHT22;35047;37.588;-122.048;2023-02-28T08:52:18;12.40;83.60
49222;DHT22;35047;37.588;-122.048;2023-02-28T08:54:46;12.40;83.50
49222;DHT22;35047;37.588;-122.048;2023-02-28T08:57:12;12.40;83.60
49222;DHT22;35047;37.588;-122.048;2023-02-28T08:59:39;12.30;84.40
49222;DHT22;35047;37.588;-122.048;2023-02-28T09:02:06;12.30;84.70
49222;DHT22;35047;37.588;-122.048;2023-02-28T09:04:33;12.30;84.60
49222;DHT22;35047;37.588;-122.048;2023-02-28T09:06:59;12.30;84.40
49222;DHT22;35047;37.588;-122.048;2023-02-28T09:09:26;12.30;84.20
49222;DHT22;35047;37.588;-122.048;2023-02-28T09:11:55;12.30;83.80
49222;DHT22;35047;37.588;-122.048;2023-02-28T09:14:22;12.30;83.80
49222;DHT22;35047;37.588;-122.048;2023-02-28T09:16:49;12.20;83.90
49222;DHT22;35047;37.588;-122.048;2023-02-28T09:19:16;12.20;84.10
49222;DHT22;35047;37.588;-122.048;2023-02-28T09:21:42;12.10;84.30
49222;DHT22;35047;37.588;-122.048;2023-02-28T09:24:09;12.20;84.70
49222;DHT22;35047;37.588;-122.048;2023-02-28T09:26:37;12.20;85.00
49222;DHT22;35047;37.588;-122.048;2023-02-28T09:29:04;12.10;85.10
49222;DHT22;35047;37.588;-122.048;2023-02-28T09:31:30;12.20;85.20
49222;DHT22;35047;37.588;-122.048;2023-02-28T09:33:57;12.20;85.20
49222;DHT22;35047;37.588;-122.048;2023-02-28T09:36:25;12.10;85.20
49222;DHT22;35047;37.588;-122.048;2023-02-28T09:38:52;12.10;85.50
49222;DHT22;35047;37.588;-122.048;2023-02-28T09:41:24;12.20;85.70
49222;DHT22;35047;37.588;-122.048;2023-02-28T09:43:59;12.20;85.90
49222;DHT22;35047;37.588;-122.048;2023-02-28T09:46:40;12.20;86.10
49222;DHT22;35047;37.588;-122.048;2023-02-28T09:49:16;12.20;86.30
49222;DHT22;35047;37.588;-122.048;2023-02-28T09:54:16;12.20;86.70
49222;DHT22;35047;37.588;-122.048;2023-02-28T09:56:50;12.30;86.70
49222;DHT22;35047;37.588;-122.048;2023-02-28T09:59:49;12.30;86.80
49222;DHT22;35047;37.588;-122.048;2023-02-28T10:02:49;12.30;86.90
49222;DHT22;35047;37.588;-122.048;2023-02-28T10:05:41;12.30;87.10
49222;DHT22;35047;37.588;-122.048;2023-02-28T10:11:01;12.30;88.20
49222;DHT22;35047;37.588;-122.048;2023-02-28T10:16:08;12.40;87.30
49222;DHT22;35047;37.588;-122.048;2023-02-28T10:18:47;12.40;87.60
49222;DHT22;35047;37.588;-122.048;2023-02-28T10:21:28;12.40;88.10
49222;DHT22;35047;37.588;-122.048;2023-02-28T10:24:02;12.40;87.40
49222;DHT22;35047;37.588;-122.048;2023-02-28T10:26:31;12.40;87.80
49222;DHT22;35047;37.588;-122.048;2023-02-28T10:28:58;12.40;87.10
49222;DHT22;35047;37.588;-122.048;2023-02-28T10:31:25;12.30;87.20
49222;DHT22;35047;37.588;-122.048;2023-02-28T10:33:52;12.30;87.60
49222;DHT22;35047;37.588;-122.048;2023-02-28T10:36:20;12.20;88.20
49222;DHT22;35047;37.588;-122.048;2023-02-28T10:38:48;12.30;87.80
49222;DHT22;35047;37.588;-122.048;2023-02-28T10:41:26;12.30;88.80
49222;DHT22;35047;37.588;-122.048;2023-02-28T10:44:13;12.40;88.00
49222;DHT22;35047;37.588;-122.048;2023-02-28T10:46:43;12.30;88.70
49222;DHT22;35047;37.588;-122.048;2023-02-28T10:49:27;12.40;88.40
49222;DHT22;35047;37.588;-122.048;2023-02-28T10:52:00;12.40;88.00
49222;DHT22;35047;37.588;-122.048;2023-02-28T10:54:33;12.50;87.90
49222;DHT22;35047;37.588;-122.048;2023-02-28T10:57:16;12.60;87.20
49222;DHT22;35047;37.588;-122.048;2023-02-28T10:59:43;12.60;86.80
49222;DHT22;35047;37.588;-122.048;2023-02-28T11:02:30;12.60;86.60
49222;DHT22;35047;37.588;-122.048;2023-02-28T11:04:57;12.60;86.50
49222;DHT22;35047;37.588;-122.048;2023-02-28T11:07:26;12.60;86.10
49222;DHT22;35047;37.588;-122.048;2023-02-28T11:09:57;12.70;86.20
49222;DHT22;35047;37.588;-122.048;2023-02-28T11:12:34;12.60;84.90
49222;DHT22;35047;37.588;-122.048;2023-02-28T11:15:06;12.50;86.90
49222;DHT22;35047;37.588;-122.048;2023-02-28T11:17:44;12.60;86.80
49222;DHT22;35047;37.588;-122.048;2023-02-28T11:20:24;12.60;86.50
49222;DHT22;35047;37.588;-122.048;2023-02-28T11:22:53;12.50;85.80
49222;DHT22;35047;37.588;-122.048;2023-02-28T11:25:35;12.50;86.70
49222;DHT22;35047;37.588;-122.048;2023-02-28T11:28:05;12.50;87.00
49222;DHT22;35047;37.588;-122.048;2023-02-28T11:30:37;12.60;86.40
49222;DHT22;35047;37.588;-122.048;2023-02-28T11:33:26;12.60;86.50
49222;DHT22;35047;37.588;-122.048;2023-02-28T11:35:59;12.70;86.30
49222;DHT22;35047;37.588;-122.048;2023-02-28T11:38:27;12.70;86.00
49222;DHT22;35047;37.588;-122.048;2023-02-28T11:43:38;12.70;86.10
49222;DHT22;35047;37.588;-122.048;2023-02-28T11:46:20;12.80;86.00
49222;DHT22;35047;37.588;-122.048;2023-02-28T11:54:28;12.80;86.10
49222;DHT22;35047;37.588;-122.048;2023-02-28T12:05:44;12.60;86.00
49222;DHT22;35047;37.588;-122.048;2023-02-28T12:13:33;12.10;85.90
49222;DHT22;35047;37.588;-122.048;2023-02-28T12:16:18;12.20;88.20
49222;DHT22;35047;37.588;-122.048;2023-02-28T12:27:18;12.00;87.40
49222;DHT22;35047;37.588;-122.048;2023-02-28T12:29:58;12.00;88.10
49222;DHT22;35047;37.588;-122.048;2023-02-28T12:32:40;12.10;88.00
49222;DHT22;35047;37.588;-122.048;2023-02-28T12:35:14;12.00;88.90
49222;DHT22;35047;37.588;-122.048;2023-02-28T12:37:51;12.00;88.70
49222;DHT22;35047;37.588;-122.048;2023-02-28T12:40:25;12.00;89.10
49222;DHT22;35047;37.588;-122.048;2023-02-28T12:43:03;12.00;89.40
49222;DHT22;35047;37.588;-122.048;2023-02-28T12:48:13;11.90;87.80
49222;DHT22;35047;37.588;-122.048;2023-02-28T12:50:41;12.00;88.50
49222;DHT22;35047;37.588;-122.048;2023-02-28T12:53:21;12.00;88.10
49222;DHT22;35047;37.588;-122.048;2023-02-28T12:58:27;11.90;87.60
49222;DHT22;35047;37.588;-122.048;2023-02-28T13:01:06;11.90;89.10
49222;DHT22;35047;37.588;-122.048;2023-02-28T13:09:22;12.00;88.80
49222;DHT22;35047;37.588;-122.048;2023-02-28T13:11:53;12.10;88.80
49222;DHT22;35047;37.588;-122.048;2023-02-28T13:19:57;12.20;89.30
49222;DHT22;35047;37.588;-122.048;2023-02-28T13:22:50;12.20;86.50
49222;DHT22;35047;37.588;-122.048;2023-02-28T13:28:09;12.20;87.20
49222;DHT22;35047;37.588;-122.048;2023-02-28T13:39:00;12.20;85.50
49222;DHT22;35047;37.588;-122.048;2023-02-28T13:46:31;12.10;86.10
49222;DHT22;35047;37.588;-122.048;2023-02-28T13:54:34;12.00;85.80
49222;DHT22;35047;37.588;-122.048;2023-02-28T14:05:34;12.10;87.10
49222;DHT22;35047;37.588;-122.048;2023-02-28T14:08:08;12.10;87.50
49222;DHT22;35047;37.588;-122.048;2023-02-28T14:11:02;12.00;86.90
49222;DHT22;35047;37.588;-122.048;2023-02-28T14:13:45;12.20;89.30
49222;DHT22;35047;37.588;-122.048;2023-02-28T14:16:17;12.10;87.90
49222;DHT22;35047;37.588;-122.048;2023-02-28T14:19:12;12.10;88.30
49222;DHT22;35047;37.588;-122.048;2023-02-28T14:21:48;12.20;87.30
49222;DHT22;35047;37.588;-122.048;2023-02-28T14:27:37;12.10;85.70
49222;DHT22;35047;37.588;-122.048;2023-02-28T14:33:14;12.10;87.30
49222;DHT22;35047;37.588;-122.048;2023-02-28T14:41:24;12.20;87.00
49222;DHT22;35047;37.588;-122.048;2023-02-28T14:44:00;12.10;88.30
49222;DHT22;35047;37.588;-122.048;2023-02-28T14:46:37;12.20;88.90
49222;DHT22;35047;37.588;-122.048;2023-02-28T14:49:06;12.10;86.50
49222;DHT22;35047;37.588;-122.048;2023-02-28T14:51:35;12.00;87.50
49222;DHT22;35047;37.588;-122.048;2023-02-28T14:54:02;12.00;88.60
49222;DHT22;35047;37.588;-122.048;2023-02-28T14:56:34;12.20;89.60
49222;DHT22;35047;37.588;-122.048;2023-02-28T14:59:02;12.20;88.80
49222;DHT22;35047;37.588;-122.048;2023-02-28T15:01:29;12.30;89.00
49222;DHT22;35047;37.588;-122.048;2023-02-28T15:04:11;12.20;86.10
49222;DHT22;35047;37.588;-122.048;2023-02-28T15:06:42;12.20;88.90
49222;DHT22;35047;37.588;-122.048;2023-02-28T15:09:16;12.20;87.50
49222;DHT22;35047;37.588;-122.048;2023-02-28T15:11:48;12.20;88.50
49222;DHT22;35047;37.588;-122.048;2023-02-28T15:14:19;12.30;89.10
49222;DHT22;35047;37.588;-122.048;2023-02-28T15:16:49;12.10;86.80
49222;DHT22;35047;37.588;-122.048;2023-02-28T15:19:23;12.10;87.70
49222;DHT22;35047;37.588;-122.048;2023-02-28T15:21:55;12.10;88.60
49222;DHT22;35047;37.588;-122.048;2023-02-28T15:24:41;12.20;87.60
49222;DHT22;35047;37.588;-122.048;2023-02-28T15:27:16;12.10;87.30
49222;DHT22;35047;37.588;-122.048;2023-02-28T15:29:53;12.20;87.70
49222;DHT22;35047;37.588;-122.048;2023-02-28T15:32:28;12.10;87.00
49222;DHT22;35047;37.588;-122.048;2023-02-28T15:34:55;12.20;88.20
49222;DHT22;35047;37.588;-122.048;2023-02-28T15:37:44;12.10;86.40
49222;DHT22;35047;37.588;-122.048;2023-02-28T15:42:38;12.10;88.40
49222;DHT22;35047;37.588;-122.048;2023-02-28T15:45:05;12.10;88.80
49222;DHT22;35047;37.588;-122.048;2023-02-28T15:47:33;12.20;88.10
49222;DHT22;35047;37.588;-122.048;2023-02-28T15:50:08;12.20;88.50
49222;DHT22;35047;37.588;-122.048;2023-02-28T15:52:44;12.00;85.20
49222;DHT22;35047;37.588;-122.048;2023-02-28T15:55:17;11.80;87.20
49222;DHT22;35047;37.588;-122.048;2023-02-28T15:57:45;11.80;87.50
49222;DHT22;35047;37.588;-122.048;2023-02-28T16:00:15;11.90;90.00
49222;DHT22;35047;37.588;-122.048;2023-02-28T16:02:42;11.90;88.90
49222;DHT22;35047;37.588;-122.048;2023-02-28T16:07:38;11.90;88.20
49222;DHT22;35047;37.588;-122.048;2023-02-28T16:10:05;12.00;89.50
49222;DHT22;35047;37.588;-122.048;2023-02-28T16:12:32;12.10;88.50
49222;DHT22;35047;37.588;-122.048;2023-02-28T16:15:03;12.00;87.30
49222;DHT22;35047;37.588;-122.048;2023-02-28T16:17:37;12.10;88.60
49222;DHT22;35047;37.588;-122.048;2023-02-28T16:20:21;12.00;88.00
49222;DHT22;35047;37.588;-122.048;2023-02-28T16:22:48;12.00;88.20
49222;DHT22;35047;37.588;-122.048;2023-02-28T16:25:17;12.10;88.80
49222;DHT22;35047;37.588;-122.048;2023-02-28T16:27:47;12.10;88.50
49222;DHT22;35047;37.588;-122.048;2023-02-28T16:30:22;12.10;90.10
49222;DHT22;35047;37.588;-122.048;2023-02-28T16:32:49;12.10;88.50
49222;DHT22;35047;37.588;-122.048;2023-02-28T16:35:17;12.10;89.30
49222;DHT22;35047;37.588;-122.048;2023-02-28T16:37:45;12.30;90.90
49222;DHT22;35047;37.588;-122.048;2023-02-28T16:40:20;12.20;88.50
49222;DHT22;35047;37.588;-122.048;2023-02-28T16:42:48;12.30;89.50
49222;DHT22;35047;37.588;-122.048;2023-02-28T16:45:19;12.30;89.70
49222;DHT22;35047;37.588;-122.048;2023-02-28T16:47:47;12.30;89.00
49222;DHT22;35047;37.588;-122.048;2023-02-28T16:50:19;12.30;89.30
49222;DHT22;35047;37.588;-122.048;2023-02-28T16:52:46;12.30;89.60
49222;DHT22;35047;37.588;-122.048;2023-02-28T16:55:12;12.40;90.10
49222;DHT22;35047;37.588;-122.048;2023-02-28T16:57:39;12.40;87.30
49222;DHT22;35047;37.588;-122.048;2023-02-28T17:00:08;12.30;87.70
49222;DHT22;35047;37.588;-122.048;2023-02-28T17:02:37;12.30;89.20
49222;DHT22;35047;37.588;-122.048;2023-02-28T17:05:04;12.20;88.30
49222;DHT22;35047;37.588;-122.048;2023-02-28T17:07:30;12.30;88.80
49222;DHT22;35047;37.588;-122.048;2023-02-28T17:09:57;12.30;88.20
49222;DHT22;35047;37.588;-122.048;2023-02-28T17:12:23;12.20;88.10
49222;DHT22;35047;37.588;-122.048;2023-02-28T17:14:50;12.30;90.00
49222;DHT22;35047;37.588;-122.048;2023-02-28T17:17:21;12.30;90.70
49222;DHT22;35047;37.588;-122.048;2023-02-28T17:19:48;12.30;91.00
49222;DHT22;35047;37.588;-122.048;2023-02-28T17:22:15;12.50;89.60
49222;DHT22;35047;37.588;-122.048;2023-02-28T17:24:42;12.40;87.50
49222;DHT22;35047;37.588;-122.048;2023-02-28T17:27:12;12.30;88.30
49222;DHT22;35047;37.588;-122.048;2023-02-28T17:29:39;12.30;90.00